createdAt,value
2023-03-26T00:00:49.029Z,9.336853027
2023-03-26T00:01:49.559Z,9.346923828
2023-03-26T00:02:50.169Z,9.36706543
2023-03-26T00:03:50.599Z,9.346923828
2023-03-26T00:04:51.076Z,9.36706543
2023-03-26T00:05:52.298Z,9.37713623
2023-03-26T00:07:22.708Z,9.36706543
2023-03-26T00:08:23.311Z,9.346923828
2023-03-26T00:09:23.639Z,9.336853027
2023-03-26T00:10:24.146Z,9.306640625
2023-03-26T00:11:24.660Z,9.306640625
2023-03-26T00:12:25.138Z,9.266357422
2023-03-26T00:13:25.727Z,9.256286621
2023-03-26T00:14:26.101Z,9.23614502
2023-03-26T00:15:26.523Z,9.296569824
2023-03-26T00:16:27.160Z,9.266357422
2023-03-26T00:17:27.677Z,9.256286621
2023-03-26T00:18:28.232Z,9.256286621
2023-03-26T00:19:28.667Z,9.256286621
2023-03-26T00:20:29.122Z,9.23614502
2023-03-26T00:21:29.556Z,9.256286621
2023-03-26T00:22:30.022Z,9.256286621
2023-03-26T00:23:30.605Z,9.266357422
2023-03-26T00:24:31.074Z,9.306640625
2023-03-26T00:25:31.560Z,9.306640625
2023-03-26T00:26:31.987Z,9.336853027
2023-03-26T00:27:32.530Z,9.316711426
2023-03-26T00:28:33.013Z,9.336853027
2023-03-26T00:29:33.509Z,9.316711426
2023-03-26T00:30:34.134Z,9.336853027
2023-03-26T00:31:34.626Z,9.37713623
2023-03-26T00:32:35.038Z,9.397277832
2023-03-26T00:33:35.521Z,9.407348633
2023-03-26T00:34:36.023Z,9.447631836
2023-03-26T00:35:36.492Z,9.49798584
2023-03-26T00:36:36.945Z,9.528198242
2023-03-26T00:37:37.437Z,9.49798584
2023-03-26T00:38:37.989Z,9.487915039
2023-03-26T00:39:38.331Z,9.49798584
2023-03-26T00:40:38.849Z,9.487915039
2023-03-26T00:41:39.305Z,9.477844238
2023-03-26T00:42:39.809Z,9.447631836
2023-03-26T00:43:40.334Z,9.417419434
2023-03-26T00:44:40.873Z,9.407348633
2023-03-26T00:45:41.398Z,9.397277832
2023-03-26T00:46:41.950Z,9.437561035
2023-03-26T00:47:42.419Z,9.447631836
2023-03-26T00:48:45.841Z,9.447631836
2023-03-26T00:49:43.321Z,9.49798584
2023-03-26T00:50:43.832Z,9.528198242
2023-03-26T00:51:44.305Z,9.528198242
2023-03-26T00:52:44.825Z,9.528198242
2023-03-26T00:53:45.374Z,9.528198242
2023-03-26T00:54:46.051Z,9.518127441
2023-03-26T00:55:46.630Z,9.477844238
2023-03-26T00:56:47.121Z,9.477844238
2023-03-26T00:57:47.521Z,9.477844238
2023-03-26T00:58:48.116Z,9.437561035
2023-03-26T00:59:48.620Z,9.407348633
2023-03-26T01:00:49.098Z,9.397277832
2023-03-26T01:01:49.670Z,9.437561035
2023-03-26T01:02:50.158Z,9.437561035
2023-03-26T01:04:05.226Z,9.407348633
2023-03-26T01:05:21.675Z,9.417419434
2023-03-26T01:06:22.273Z,9.437561035
2023-03-26T01:07:22.884Z,9.447631836
2023-03-26T01:08:23.409Z,9.437561035
2023-03-26T01:09:24.149Z,9.477844238
2023-03-26T01:10:24.638Z,9.49798584
2023-03-26T01:11:25.163Z,9.518127441
2023-03-26T01:12:25.649Z,9.528198242
2023-03-26T01:13:26.094Z,9.548339844
2023-03-26T01:14:26.576Z,9.558410645
2023-03-26T01:15:27.187Z,9.558410645
2023-03-26T01:16:27.555Z,9.588623047
2023-03-26T01:17:28.080Z,9.618835449
2023-03-26T01:18:28.505Z,9.618835449
2023-03-26T01:19:29.050Z,9.618835449
2023-03-26T01:20:29.483Z,9.588623047
2023-03-26T01:21:30.001Z,9.588623047
2023-03-26T01:22:30.443Z,9.578552246
2023-03-26T01:23:30.889Z,9.548339844
2023-03-26T01:24:31.472Z,9.518127441
2023-03-26T01:25:31.846Z,9.49798584
2023-03-26T01:26:32.582Z,9.49798584
2023-03-26T01:27:33.044Z,9.49798584
2023-03-26T01:28:33.586Z,9.528198242
2023-03-26T01:29:34.255Z,9.528198242
2023-03-26T01:30:34.593Z,9.528198242
2023-03-26T01:31:35.004Z,9.528198242
2023-03-26T01:32:35.618Z,9.548339844
2023-03-26T01:33:36.049Z,9.588623047
2023-03-26T01:34:36.479Z,9.618835449
2023-03-26T01:35:36.885Z,9.598693848
2023-03-26T01:36:37.327Z,9.598693848
2023-03-26T01:37:37.836Z,9.598693848
2023-03-26T01:38:38.319Z,9.598693848
2023-03-26T01:39:38.978Z,9.618835449
2023-03-26T01:40:39.230Z,9.649047852
2023-03-26T01:41:39.700Z,9.618835449
2023-03-26T01:42:40.133Z,9.588623047
2023-03-26T01:43:40.669Z,9.558410645
2023-03-26T01:44:41.174Z,9.518127441
2023-03-26T01:45:41.596Z,9.518127441
2023-03-26T01:46:42.049Z,9.487915039
2023-03-26T01:47:42.539Z,9.487915039
2023-03-26T01:48:42.968Z,9.487915039
2023-03-26T01:49:43.465Z,9.49798584
2023-03-26T01:50:43.914Z,9.49798584
2023-03-26T01:51:44.383Z,9.518127441
2023-03-26T01:52:44.834Z,9.528198242
2023-03-26T01:53:45.280Z,9.548339844
2023-03-26T01:54:45.850Z,9.548339844
2023-03-26T01:55:46.251Z,9.528198242
2023-03-26T01:56:46.802Z,9.548339844
2023-03-26T01:57:47.229Z,9.558410645
2023-03-26T01:58:47.676Z,9.558410645
2023-03-26T01:59:48.167Z,9.588623047
2023-03-26T02:00:48.649Z,9.588623047
2023-03-26T02:01:49.169Z,9.649047852
2023-03-26T02:02:49.659Z,9.679260254
2023-03-26T02:03:50.543Z,9.649047852
2023-03-26T02:05:21.363Z,9.649047852
2023-03-26T02:06:21.756Z,9.598693848
2023-03-26T02:07:22.250Z,9.578552246
2023-03-26T02:08:22.716Z,9.558410645
2023-03-26T02:09:23.207Z,9.49798584
2023-03-26T02:10:23.766Z,9.487915039
2023-03-26T02:11:33.545Z,9.528198242
2023-03-26T02:12:24.764Z,9.528198242
2023-03-26T02:13:25.231Z,9.548339844
2023-03-26T02:14:25.749Z,9.528198242
2023-03-26T02:15:26.276Z,9.528198242
2023-03-26T02:16:26.679Z,9.548339844
2023-03-26T02:17:27.183Z,9.548339844
2023-03-26T02:18:27.635Z,9.49798584
2023-03-26T02:19:28.070Z,9.477844238
2023-03-26T02:20:28.566Z,9.447631836
2023-03-26T02:21:29.015Z,9.437561035
2023-03-26T02:22:29.452Z,9.447631836
2023-03-26T02:23:29.908Z,9.477844238
2023-03-26T02:24:30.406Z,9.437561035
2023-03-26T02:25:30.886Z,9.417419434
2023-03-26T02:26:31.349Z,9.407348633
2023-03-26T02:27:31.820Z,9.417419434
2023-03-26T02:29:02.436Z,9.447631836
2023-03-26T02:30:33.190Z,9.477844238
2023-03-26T02:31:33.681Z,9.487915039
2023-03-26T02:32:34.106Z,9.447631836
2023-03-26T02:33:34.539Z,9.437561035
2023-03-26T02:34:35.051Z,9.417419434
2023-03-26T02:35:35.655Z,9.417419434
2023-03-26T02:36:36.346Z,9.437561035
2023-03-26T02:37:36.711Z,9.477844238
2023-03-26T02:38:37.187Z,9.477844238
2023-03-26T02:39:37.616Z,9.487915039
2023-03-26T02:40:38.063Z,9.477844238
2023-03-26T02:41:38.485Z,9.49798584
2023-03-26T02:42:38.989Z,9.558410645
2023-03-26T02:43:39.454Z,9.548339844
2023-03-26T02:44:39.866Z,9.518127441
2023-03-26T02:45:40.384Z,9.477844238
2023-03-26T02:46:40.750Z,9.417419434
2023-03-26T02:47:41.336Z,9.407348633
2023-03-26T02:48:41.731Z,9.37713623
2023-03-26T02:49:42.280Z,9.37713623
2023-03-26T02:50:42.817Z,9.397277832
2023-03-26T02:51:43.128Z,9.37713623
2023-03-26T02:52:43.610Z,9.36706543
2023-03-26T02:53:44.034Z,9.346923828
2023-03-26T02:54:44.508Z,9.37713623
2023-03-26T02:55:45.002Z,9.407348633
2023-03-26T02:56:45.583Z,9.437561035
2023-03-26T02:57:45.989Z,9.447631836
2023-03-26T02:58:46.524Z,9.437561035
2023-03-26T02:59:46.990Z,9.417419434
2023-03-26T03:00:47.512Z,9.397277832
2023-03-26T03:01:47.982Z,9.397277832
2023-03-26T03:02:48.806Z,9.36706543
2023-03-26T03:03:48.859Z,9.36706543
2023-03-26T03:04:49.826Z,9.37713623
2023-03-26T03:06:20.575Z,9.36706543
2023-03-26T03:07:20.980Z,9.37713623
2023-03-26T03:08:21.450Z,9.397277832
2023-03-26T03:09:21.835Z,9.37713623
2023-03-26T03:10:22.313Z,9.36706543
2023-03-26T03:11:22.776Z,9.346923828
2023-03-26T03:12:23.266Z,9.316711426
2023-03-26T03:13:23.665Z,9.296569824
2023-03-26T03:14:24.089Z,9.23614502
2023-03-26T03:15:24.630Z,9.216003418
2023-03-26T03:16:25.279Z,9.195861816
2023-03-26T03:17:25.738Z,9.195861816
2023-03-26T03:18:26.184Z,9.195861816
2023-03-26T03:19:26.598Z,9.226074219
2023-03-26T03:20:27.060Z,9.266357422
2023-03-26T03:21:27.542Z,9.306640625
2023-03-26T03:22:27.986Z,9.296569824
2023-03-26T03:23:28.471Z,9.256286621
2023-03-26T03:24:28.889Z,9.266357422
2023-03-26T03:25:29.350Z,9.266357422
2023-03-26T03:26:29.964Z,9.306640625
2023-03-26T03:27:30.322Z,9.346923828
2023-03-26T03:28:30.806Z,9.336853027
2023-03-26T03:29:31.251Z,9.336853027
2023-03-26T03:30:31.686Z,9.336853027
2023-03-26T03:31:32.538Z,9.306640625
2023-03-26T03:32:32.800Z,9.266357422
2023-03-26T03:33:33.461Z,9.266357422
2023-03-26T03:34:33.923Z,9.266357422
2023-03-26T03:35:34.397Z,9.266357422
2023-03-26T03:36:34.846Z,9.296569824
2023-03-26T03:37:35.252Z,9.306640625
2023-03-26T03:38:35.689Z,9.316711426
2023-03-26T03:39:36.487Z,9.336853027
2023-03-26T03:40:36.973Z,9.346923828
2023-03-26T03:41:37.452Z,9.37713623
2023-03-26T03:42:37.852Z,9.36706543
2023-03-26T03:43:38.302Z,9.407348633
2023-03-26T03:44:38.761Z,9.437561035
2023-03-26T03:45:39.274Z,9.447631836
2023-03-26T03:46:39.797Z,9.437561035
2023-03-26T03:47:40.282Z,9.407348633
2023-03-26T03:48:40.677Z,9.417419434
2023-03-26T03:49:41.087Z,9.487915039
2023-03-26T03:50:41.585Z,9.477844238
2023-03-26T03:51:42.083Z,9.477844238
2023-03-26T03:52:42.512Z,9.417419434
2023-03-26T03:53:43.010Z,9.407348633
2023-03-26T03:54:43.467Z,9.397277832
2023-03-26T03:55:43.930Z,9.36706543
2023-03-26T03:56:44.600Z,9.397277832
2023-03-26T03:57:44.933Z,9.397277832
2023-03-26T03:58:45.362Z,9.437561035
2023-03-26T03:59:47.638Z,9.447631836
2023-03-26T04:00:46.250Z,9.447631836
2023-03-26T04:01:46.875Z,9.477844238
2023-03-26T04:02:47.414Z,9.477844238
2023-03-26T04:03:48.045Z,9.447631836
2023-03-26T04:04:48.352Z,9.447631836
2023-03-26T04:06:19.434Z,9.477844238
2023-03-26T04:07:19.842Z,9.447631836
2023-03-26T04:08:20.310Z,9.447631836
2023-03-26T04:09:20.798Z,9.447631836
2023-03-26T04:10:21.243Z,9.487915039
2023-03-26T04:11:21.662Z,9.487915039
2023-03-26T04:12:22.213Z,9.518127441
2023-03-26T04:13:22.710Z,9.548339844
2023-03-26T04:14:23.173Z,9.548339844
2023-03-26T04:15:23.659Z,9.578552246
2023-03-26T04:16:24.108Z,9.558410645
2023-03-26T04:17:24.572Z,9.558410645
2023-03-26T04:18:24.954Z,9.548339844
2023-03-26T04:19:25.421Z,9.548339844
2023-03-26T04:20:25.951Z,9.49798584
2023-03-26T04:21:26.485Z,9.447631836
2023-03-26T04:22:26.957Z,9.437561035
2023-03-26T04:23:27.398Z,9.407348633
2023-03-26T04:24:27.890Z,9.397277832
2023-03-26T04:25:28.396Z,9.37713623
2023-03-26T04:26:28.853Z,9.407348633
2023-03-26T04:27:29.330Z,9.417419434
2023-03-26T04:28:29.786Z,9.447631836
2023-03-26T04:29:30.299Z,9.437561035
2023-03-26T04:30:30.787Z,9.437561035
2023-03-26T04:31:31.342Z,9.407348633
2023-03-26T04:32:31.779Z,9.417419434
2023-03-26T04:33:32.481Z,9.407348633
2023-03-26T04:34:32.955Z,9.437561035
2023-03-26T04:35:33.408Z,9.447631836
2023-03-26T04:36:33.832Z,9.447631836
2023-03-26T04:37:34.454Z,9.447631836
2023-03-26T04:38:34.831Z,9.49798584
2023-03-26T04:39:35.312Z,9.518127441
2023-03-26T04:40:35.766Z,9.518127441
2023-03-26T04:41:36.219Z,9.49798584
2023-03-26T04:42:36.733Z,9.49798584
2023-03-26T04:43:37.163Z,9.518127441
2023-03-26T04:44:37.599Z,9.528198242
2023-03-26T04:45:38.037Z,9.548339844
2023-03-26T04:46:38.521Z,9.548339844
2023-03-26T04:47:39.111Z,9.548339844
2023-03-26T04:48:39.431Z,9.528198242
2023-03-26T04:49:39.906Z,9.528198242
2023-03-26T04:50:40.347Z,9.518127441
2023-03-26T04:51:40.778Z,9.49798584
2023-03-26T04:52:43.208Z,9.487915039
2023-03-26T04:53:41.627Z,9.447631836
2023-03-26T04:54:42.172Z,9.437561035
2023-03-26T04:55:42.631Z,9.397277832
2023-03-26T04:56:43.128Z,9.37713623
2023-03-26T04:57:43.573Z,9.346923828
2023-03-26T04:58:43.993Z,9.346923828
2023-03-26T04:59:44.517Z,9.346923828
2023-03-26T05:00:44.972Z,9.37713623
2023-03-26T05:01:45.471Z,9.37713623
2023-03-26T05:02:46.029Z,9.37713623
2023-03-26T05:03:46.471Z,9.397277832
2023-03-26T05:04:46.946Z,9.407348633
2023-03-26T05:05:47.452Z,9.417419434
2023-03-26T05:06:48.389Z,9.417419434
2023-03-26T05:08:19.052Z,9.417419434
2023-03-26T05:09:19.476Z,9.437561035
2023-03-26T05:10:19.885Z,9.437561035
2023-03-26T05:11:20.377Z,9.437561035
2023-03-26T05:12:20.861Z,9.417419434
2023-03-26T05:13:21.472Z,9.417419434
2023-03-26T05:14:21.832Z,9.417419434
2023-03-26T05:15:22.312Z,9.417419434
2023-03-26T05:16:22.693Z,9.407348633
2023-03-26T05:17:23.248Z,9.407348633
2023-03-26T05:18:23.667Z,9.36706543
2023-03-26T05:19:24.137Z,9.37713623
2023-03-26T05:20:24.644Z,9.407348633
2023-03-26T05:21:25.142Z,9.407348633
2023-03-26T05:22:25.579Z,9.417419434
2023-03-26T05:23:26.063Z,9.407348633
2023-03-26T05:24:26.515Z,9.407348633
2023-03-26T05:25:27.131Z,9.407348633
2023-03-26T05:26:27.522Z,9.437561035
2023-03-26T05:27:27.977Z,9.447631836
2023-03-26T05:28:28.485Z,9.477844238
2023-03-26T05:29:28.882Z,9.487915039
2023-03-26T05:30:29.352Z,9.528198242
2023-03-26T05:31:29.818Z,9.558410645
2023-03-26T05:32:30.328Z,9.548339844
2023-03-26T05:33:30.793Z,9.548339844
2023-03-26T05:34:31.154Z,9.528198242
2023-03-26T05:35:31.629Z,9.518127441
2023-03-26T05:36:32.055Z,9.518127441
2023-03-26T05:37:32.611Z,9.477844238
2023-03-26T05:38:33.051Z,9.447631836
2023-03-26T05:39:33.497Z,9.447631836
2023-03-26T05:40:33.980Z,9.447631836
2023-03-26T05:41:34.436Z,9.447631836
2023-03-26T05:42:34.857Z,9.477844238
2023-03-26T05:43:35.317Z,9.447631836
2023-03-26T05:44:35.680Z,9.487915039
2023-03-26T05:45:36.178Z,9.477844238
2023-03-26T05:46:36.858Z,9.487915039
2023-03-26T05:47:37.202Z,9.477844238
2023-03-26T05:48:37.679Z,9.477844238
2023-03-26T05:49:38.039Z,9.487915039
2023-03-26T05:50:38.457Z,9.487915039
2023-03-26T05:51:39.012Z,9.518127441
2023-03-26T05:52:39.434Z,9.518127441
2023-03-26T05:53:39.934Z,9.49798584
2023-03-26T05:54:40.352Z,9.518127441
2023-03-26T05:55:40.768Z,9.477844238
2023-03-26T05:56:41.200Z,9.437561035
2023-03-26T05:57:41.748Z,9.437561035
2023-03-26T05:58:42.231Z,9.437561035
2023-03-26T05:59:42.673Z,9.407348633
2023-03-26T06:00:43.098Z,9.437561035
2023-03-26T06:01:43.529Z,9.437561035
2023-03-26T06:02:44.053Z,9.477844238
2023-03-26T06:03:44.793Z,9.487915039
2023-03-26T06:04:45.058Z,9.518127441
2023-03-26T06:05:45.447Z,9.528198242
2023-03-26T06:06:45.995Z,9.548339844
2023-03-26T06:07:46.416Z,9.558410645
2023-03-26T06:08:47.020Z,9.588623047
2023-03-26T06:10:18.823Z,9.578552246
2023-03-26T06:11:18.339Z,9.548339844
2023-03-26T06:12:18.769Z,9.518127441
2023-03-26T06:13:19.210Z,9.487915039
2023-03-26T06:14:19.769Z,9.487915039
2023-03-26T06:15:20.216Z,9.477844238
2023-03-26T06:16:26.267Z,9.487915039
2023-03-26T06:17:21.260Z,9.477844238
2023-03-26T06:18:21.748Z,9.49798584
2023-03-26T06:19:22.158Z,9.518127441
2023-03-26T06:20:22.632Z,9.528198242
2023-03-26T06:21:23.100Z,9.528198242
2023-03-26T06:22:23.553Z,9.518127441
2023-03-26T06:23:23.993Z,9.518127441
2023-03-26T06:24:24.439Z,9.518127441
2023-03-26T06:25:24.885Z,9.528198242
2023-03-26T06:26:25.374Z,9.558410645
2023-03-26T06:27:25.820Z,9.558410645
2023-03-26T06:28:26.233Z,9.548339844
2023-03-26T06:29:26.677Z,9.548339844
2023-03-26T06:30:27.224Z,9.558410645
2023-03-26T06:31:27.768Z,9.578552246
2023-03-26T06:32:28.167Z,9.588623047
2023-03-26T06:33:28.619Z,9.618835449
2023-03-26T06:34:29.166Z,9.598693848
2023-03-26T06:35:29.486Z,9.588623047
2023-03-26T06:36:29.951Z,9.578552246
2023-03-26T06:37:30.469Z,9.588623047
2023-03-26T06:38:30.962Z,9.558410645
2023-03-26T06:39:31.533Z,9.578552246
2023-03-26T06:40:31.859Z,9.588623047
2023-03-26T06:41:32.522Z,9.588623047
2023-03-26T06:43:07.107Z,9.588623047
2023-03-26T06:43:33.436Z,9.588623047
2023-03-26T06:44:33.904Z,9.598693848
2023-03-26T06:45:34.312Z,9.649047852
2023-03-26T06:46:34.767Z,9.618835449
2023-03-26T06:47:35.225Z,9.618835449
2023-03-26T06:48:35.657Z,9.618835449
2023-03-26T06:49:36.189Z,9.62890625
2023-03-26T06:50:36.604Z,9.618835449
2023-03-26T06:51:37.047Z,9.62890625
2023-03-26T06:52:37.480Z,9.649047852
2023-03-26T06:53:37.948Z,9.62890625
2023-03-26T06:54:38.462Z,9.62890625
2023-03-26T06:55:38.925Z,9.62890625
2023-03-26T06:56:39.384Z,9.649047852
2023-03-26T06:57:39.942Z,9.669189453
2023-03-26T06:58:40.574Z,9.679260254
2023-03-26T06:59:41.412Z,9.709472656
2023-03-26T07:00:41.857Z,9.729614258
2023-03-26T07:01:42.279Z,9.709472656
2023-03-26T07:02:42.767Z,9.699401855
2023-03-26T07:03:43.190Z,9.679260254
2023-03-26T07:04:43.635Z,9.679260254
2023-03-26T07:05:44.139Z,9.699401855
2023-03-26T07:06:44.677Z,9.649047852
2023-03-26T07:07:46.605Z,9.62890625
2023-03-26T07:08:45.547Z,9.578552246
2023-03-26T07:09:45.993Z,9.558410645
2023-03-26T07:10:46.965Z,9.477844238
2023-03-26T07:12:17.692Z,9.447631836
2023-03-26T07:13:18.279Z,9.417419434
2023-03-26T07:14:18.761Z,9.417419434
2023-03-26T07:15:19.237Z,9.407348633
2023-03-26T07:16:19.803Z,9.397277832
2023-03-26T07:17:20.139Z,9.397277832
2023-03-26T07:18:20.743Z,9.407348633
2023-03-26T07:19:21.186Z,9.437561035
2023-03-26T07:20:21.620Z,9.447631836
2023-03-26T07:21:22.076Z,9.477844238
2023-03-26T07:22:22.618Z,9.487915039
2023-03-26T07:23:23.257Z,9.528198242
2023-03-26T07:24:23.516Z,9.528198242
2023-03-26T07:25:23.958Z,9.558410645
2023-03-26T07:26:24.410Z,9.588623047
2023-03-26T07:27:24.890Z,9.598693848
2023-03-26T07:28:25.458Z,9.649047852
2023-03-26T07:29:25.825Z,9.649047852
2023-03-26T07:30:26.290Z,9.699401855
2023-03-26T07:31:26.966Z,9.709472656
2023-03-26T07:32:27.362Z,9.729614258
2023-03-26T07:33:27.946Z,9.709472656
2023-03-26T07:34:28.269Z,9.649047852
2023-03-26T07:35:28.791Z,9.62890625
2023-03-26T07:36:29.138Z,9.649047852
2023-03-26T07:37:29.619Z,9.669189453
2023-03-26T07:38:30.156Z,9.679260254
2023-03-26T07:39:30.575Z,9.709472656
2023-03-26T07:40:31.108Z,9.739685059
2023-03-26T07:41:31.539Z,9.779968262
2023-03-26T07:42:31.975Z,9.810180664
2023-03-26T07:43:32.571Z,9.850463867
2023-03-26T07:44:34.080Z,9.850463867
2023-03-26T07:45:33.575Z,9.830322266
2023-03-26T07:46:34.021Z,9.800109863
2023-03-26T07:47:34.495Z,9.779968262
2023-03-26T07:48:34.902Z,9.779968262
2023-03-26T07:49:35.288Z,9.779968262
2023-03-26T07:50:35.753Z,9.769897461
2023-03-26T07:51:36.253Z,9.779968262
2023-03-26T07:52:36.688Z,9.779968262
2023-03-26T07:53:37.157Z,9.779968262
2023-03-26T07:54:37.559Z,9.800109863
2023-03-26T07:55:38.050Z,9.830322266
2023-03-26T07:56:38.644Z,9.860534668
2023-03-26T07:57:39.027Z,9.89074707
2023-03-26T07:58:39.467Z,9.920959473
2023-03-26T07:59:39.861Z,9.951171875
2023-03-26T08:00:40.263Z,9.931030273
2023-03-26T08:01:40.760Z,9.951171875
2023-03-26T08:02:41.292Z,9.981384277
2023-03-26T08:03:41.860Z,10.01159668
2023-03-26T08:04:42.279Z,10.04180908
2023-03-26T08:05:42.618Z,10.07202148
2023-03-26T08:06:43.171Z,10.14251709
2023-03-26T08:07:43.635Z,10.17272949
2023-03-26T08:08:44.180Z,10.2432251
2023-03-26T08:09:44.595Z,10.2835083
2023-03-26T08:10:45.056Z,10.3137207
2023-03-26T08:11:45.514Z,10.39428711
2023-03-26T08:13:16.528Z,10.42449951
2023-03-26T08:14:16.979Z,10.42449951
2023-03-26T08:15:17.403Z,10.44464111
2023-03-26T08:16:17.856Z,10.47485352
2023-03-26T08:17:18.273Z,10.44464111
2023-03-26T08:18:18.861Z,10.47485352
2023-03-26T08:19:19.424Z,10.49499512
2023-03-26T08:20:19.793Z,10.53527832
2023-03-26T08:21:20.193Z,10.53527832
2023-03-26T08:22:20.632Z,10.56549072
2023-03-26T08:23:21.117Z,10.57556152
2023-03-26T08:24:21.588Z,10.57556152
2023-03-26T08:25:22.057Z,10.57556152
2023-03-26T08:26:22.528Z,10.57556152
2023-03-26T08:27:23.013Z,10.57556152
2023-03-26T08:28:23.358Z,10.62591553
2023-03-26T08:29:23.952Z,10.62591553
2023-03-26T08:30:24.370Z,10.62591553
2023-03-26T08:31:24.921Z,10.67626953
2023-03-26T08:32:25.289Z,10.67626953
2023-03-26T08:33:25.682Z,10.68634033
2023-03-26T08:34:26.196Z,10.67626953
2023-03-26T08:35:26.663Z,10.69641113
2023-03-26T08:36:27.109Z,10.72662354
2023-03-26T08:37:27.636Z,10.71655273
2023-03-26T08:38:28.121Z,10.72662354
2023-03-26T08:39:28.763Z,10.74676514
2023-03-26T08:40:29.181Z,10.75683594
2023-03-26T08:41:29.701Z,10.80718994
2023-03-26T08:42:30.256Z,10.82733154
2023-03-26T08:43:30.707Z,10.85754395
2023-03-26T08:44:31.291Z,10.83740234
2023-03-26T08:45:31.705Z,10.82733154
2023-03-26T08:46:32.387Z,10.82733154
2023-03-26T08:47:33.035Z,10.85754395
2023-03-26T08:48:33.413Z,10.85754395
2023-03-26T08:49:33.871Z,10.86761475
2023-03-26T08:50:34.335Z,10.90789795
2023-03-26T08:51:34.906Z,10.93811035
2023-03-26T08:52:35.376Z,10.94818115
2023-03-26T08:53:35.834Z,11.00860596
2023-03-26T08:54:36.391Z,11.00860596
2023-03-26T08:55:36.699Z,11.04888916
2023-03-26T08:56:37.192Z,11.01867676
2023-03-26T08:57:37.721Z,11.02874756
2023-03-26T08:58:38.182Z,11.04888916
2023-03-26T08:59:38.700Z,11.08917236
2023-03-26T09:00:39.001Z,11.07910156
2023-03-26T09:01:39.543Z,11.11938477
2023-03-26T09:02:39.998Z,11.11938477
2023-03-26T09:03:40.469Z,11.12945557
2023-03-26T09:04:41.012Z,11.16973877
2023-03-26T09:05:41.345Z,11.15966797
2023-03-26T09:06:41.785Z,11.16973877
2023-03-26T09:07:42.240Z,11.18988037
2023-03-26T09:08:54.128Z,11.16973877
2023-03-26T09:09:43.223Z,11.19995117
2023-03-26T09:10:43.730Z,11.23016357
2023-03-26T09:11:44.146Z,11.26037598
2023-03-26T09:12:44.580Z,11.31072998
2023-03-26T09:14:15.813Z,11.30065918
2023-03-26T09:15:16.334Z,11.28051758
2023-03-26T09:16:16.966Z,11.30065918
2023-03-26T09:17:17.346Z,11.31072998
2023-03-26T09:18:18.007Z,11.33087158
2023-03-26T09:19:18.416Z,11.33087158
2023-03-26T09:20:18.913Z,11.36108398
2023-03-26T09:21:19.378Z,11.36108398
2023-03-26T09:22:19.891Z,11.36108398
2023-03-26T09:23:20.421Z,11.38122559
2023-03-26T09:24:20.919Z,11.39129639
2023-03-26T09:25:21.439Z,11.41143799
2023-03-26T09:26:21.929Z,11.44165039
2023-03-26T09:27:22.339Z,11.46179199
2023-03-26T09:28:22.810Z,11.48193359
2023-03-26T09:29:23.260Z,11.49200439
2023-03-26T09:30:23.747Z,11.49200439
2023-03-26T09:31:24.292Z,11.5322876
2023-03-26T09:32:24.723Z,11.5423584
2023-03-26T09:33:25.173Z,11.5423584
2023-03-26T09:34:25.690Z,11.5423584
2023-03-26T09:35:26.225Z,11.5423584
2023-03-26T09:36:26.723Z,11.5322876
2023-03-26T09:37:27.235Z,11.5423584
2023-03-26T09:38:27.745Z,11.48193359
2023-03-26T09:39:28.201Z,11.45172119
2023-03-26T09:40:28.712Z,11.45172119
2023-03-26T09:41:29.364Z,11.46179199
2023-03-26T09:42:29.878Z,11.48193359
2023-03-26T09:43:30.353Z,11.49200439
2023-03-26T09:44:30.796Z,11.5322876
2023-03-26T09:45:31.382Z,11.5322876
2023-03-26T09:46:31.815Z,11.512146
2023-03-26T09:47:32.673Z,11.5322876
2023-03-26T09:48:33.195Z,11.49200439
2023-03-26T09:49:33.685Z,11.46179199
2023-03-26T09:50:34.218Z,11.44165039
2023-03-26T09:51:34.630Z,11.45172119
2023-03-26T09:52:35.145Z,11.42150879
2023-03-26T09:53:35.653Z,11.41143799
2023-03-26T09:54:36.093Z,11.42150879
2023-03-26T09:55:36.512Z,11.42150879
2023-03-26T09:56:39.096Z,11.41143799
2023-03-26T09:57:37.522Z,11.44165039
2023-03-26T09:58:37.911Z,11.42150879
2023-03-26T09:59:38.354Z,11.42150879
2023-03-26T10:00:38.794Z,11.41143799
2023-03-26T10:01:39.307Z,11.42150879
2023-03-26T10:02:46.634Z,11.39129639
2023-03-26T10:03:40.150Z,11.35101318
2023-03-26T10:04:40.627Z,11.36108398
2023-03-26T10:05:41.128Z,11.36108398
2023-03-26T10:06:41.605Z,11.36108398
2023-03-26T10:07:42.083Z,11.38122559
2023-03-26T10:08:42.715Z,11.39129639
2023-03-26T10:09:43.220Z,11.38122559
2023-03-26T10:10:43.725Z,11.35101318
2023-03-26T10:11:44.646Z,11.31072998
2023-03-26T10:13:15.507Z,11.36108398
2023-03-26T10:14:15.839Z,11.39129639
2023-03-26T10:15:16.312Z,11.42150879
2023-03-26T10:16:16.737Z,11.46179199
2023-03-26T10:17:17.187Z,11.512146
2023-03-26T10:18:27.070Z,11.5322876
2023-03-26T10:19:18.309Z,11.5625
2023-03-26T10:20:18.746Z,11.5927124
2023-03-26T10:21:19.211Z,11.6027832
2023-03-26T10:22:19.692Z,11.6229248
2023-03-26T10:23:20.167Z,11.63299561
2023-03-26T10:24:20.706Z,11.64306641
2023-03-26T10:25:21.221Z,11.66320801
2023-03-26T10:26:21.744Z,11.67327881
2023-03-26T10:27:24.699Z,11.69342041
2023-03-26T10:28:23.021Z,11.72363281
2023-03-26T10:29:23.541Z,11.70349121
2023-03-26T10:30:23.984Z,11.69342041
2023-03-26T10:31:24.563Z,11.74377441
2023-03-26T10:32:25.044Z,11.75384521
2023-03-26T10:33:25.607Z,11.72363281
2023-03-26T10:34:28.998Z,11.64306641
2023-03-26T10:35:26.528Z,11.6229248
2023-03-26T10:36:27.033Z,11.6229248
2023-03-26T10:37:27.566Z,11.63299561
2023-03-26T10:38:28.004Z,11.64306641
2023-03-26T10:39:37.636Z,11.64306641
2023-03-26T10:40:29.017Z,11.64306641
2023-03-26T10:41:29.498Z,11.67327881
2023-03-26T10:42:30.175Z,11.67327881
2023-03-26T10:43:30.783Z,11.72363281
2023-03-26T10:44:31.295Z,11.75384521
2023-03-26T10:45:31.810Z,11.79412842
2023-03-26T10:46:32.650Z,11.85455322
2023-03-26T10:47:33.086Z,11.88476563
2023-03-26T10:48:33.594Z,11.90490723
2023-03-26T10:49:34.071Z,11.85455322
2023-03-26T10:50:34.551Z,11.82434082
2023-03-26T10:51:35.038Z,11.85455322
2023-03-26T10:52:35.534Z,11.85455322
2023-03-26T10:53:36.056Z,11.87469482
2023-03-26T10:54:36.504Z,11.92504883
2023-03-26T10:55:36.973Z,11.93511963
2023-03-26T10:56:37.446Z,11.97540283
2023-03-26T10:57:37.880Z,12.03582764
2023-03-26T10:58:48.822Z,12.06604004
2023-03-26T10:59:38.818Z,12.10632324
2023-03-26T11:00:39.292Z,12.07611084
2023-03-26T11:01:39.871Z,12.07611084